Cerro Moreno Airport
SCFA : now visible

Aeroporto :











RITROVATECI SU...

 
LOGIN :

Iscrizione | Disclaimer

   EN    FR    IT 

 









Sommario :    VFR   VFR Marginale   IFR   IFR Intensivo   IFR Molto Intensivo
Visibilità : 
Base nubi : 
>= 8 km
>= 3000ft
5 / 8 km
1000 / 3000 ft
1500m / 5 km
500 / 1000 ft
800 / 1500m
200 / 500 ft
< 800m
< 200 ft
Simboli :   Temporali  Nebbia  Neve Forte  Precipitazioni Forti  Vento > 20 kt






- Altitudine del aeroporto : 455 ft
- Codice IATA : ANF


SCFA - Cerro Moreno

ULTIMO METAR :
  • 301000Z 13003KT 9999 BKN005 15/14 Q1013 NOSIG

METARs OBSOLETI :
  • 300900Z 16003KT 9999 FEW007 16/15 Q1013 NOSIG
  • 300800Z 19003KT 9999 SCT009 16/15 Q1013 NOSIG

TAF TAF SCFA
Valido dal 30 a 06 ore il 31 a 06 ore UTC


300430Z 3006/3106 19004KT 9999 BKN010 TN15/3009Z TX20/3016Z
BECMG 3015/3017 22012KT FEW020 SCT300
BECMG 3100/3102 19004KT
BECMG 3104/3106 BKN010



MetMap, La meteo Aeronautica in un colpo d'occhio ! - Copyright ORBIFLY Dicembre 2007 - Disclaimer

ORBIFLY MET'MAP TEAM :

Programmazione e sviluppo : Alexandra Zaïnal
Concezione : Baudouin d'Aumeries
Aiuto per la programmazione : Marc-Olivier Méhu
Supporto tecnico e logistico : Manuel Goepfert
Aiuto per la traduzione : Arnaldo La Scala

Contatto : metmap@orbifly.com




FONTI E CREDITI :

   NOAA       Earth
Advisory